Scroll down
FLIGHT INFORMATION
Cargolux Airlines International

CLX7996

At Arrival Gate

UBBB
 ELLX
DATE: 2020-10-08
GATE:  -
GATE DEPARTURE: 04:18
TAKEOFF: 04:28
DATE: 2020-10-08
GATE:  -
LANDING: 09:03
GATE ARRIVAL: 09:10
FLIGHT DATA
Crew: 
Speed: 
505 kts
Altitude: 
36,009 ft
Stage Length: 
1,909.4 nm
Block Time: 
4.9 hrs
Flight Time: 
4.6 hrs
Fuel Used: 
115,239 lb
Cleared Route: UBBB RASAM NUNTI LUSAL LIMTI INTEV SUBUT BAGVA VERCA BARAD LAGAS AGISO TETRO ODILI LU SARPI ATVAM OLUPO GOKPA TIVUG EVPUV DEVMU EVPIM BEDOP MODAU ODMAX NEGEM RITAG KOMAN POLUN VAMON LAMIT NEKUL MIVSA MOPUG GITAS SIRDU STEIN DIVAL SITNI LNZ RENKA MAMOR UNKUL UPALA INBED LOHRE ESATI BOMBI FFM RUDUS OBIGA ADENU NOSPA BITBU BETEX ELLX
TRACK DATA
50,000 ft 1,000 kts
AIRCRAFT INFO AND CUMULATIVE STATS
Aircraft Type: 
B748F
Registration: 
SELCAL: 
MSN/LN: 
35807 / 1424
Total Flights: 
3
Total Block Time: 
15 hrs
Total Flight Time: 
9.4 hrs
Total Fuel Time: 
236,856 lb
DATALINK LOG | Newest first | Current as of: 2020-11-25 20:00:57
LABEL SEQUENCE CONTENT Dn/Up
QD392109:10 56.9▼ Dn
QC321209:03▼ Dn
UM201133CLEARED TO FL 60▲ Up
DM61123REQUEST FL 060 DUE TO A/C PERF▼ Dn
5U4349ELLX 071240Z 24012KT 9999 SCT010 SCT020 10/09 Q1013▲ Up
5S0035ELLX▼ Dn
UM205541CLEARED TO FL 120▲ Up
DM65531REQUEST FL 120 DUE TO A/C PERF▼ Dn
UM205035CLEARED TO FL 240▲ Up
DM65025REQUEST FL 240 DUE TO A/C PERF▼ Dn
UM0 UM192411UNABLE. MAINTAIN ASSIGNED ALTITUDE▲ Up
DM522401WHEN CAN WE EXPECT LOWER LEVEL▼ Dn
5U5545ELLX 071152Z 24012KT 9999 SCT005 BKN010 10/09 Q1012▲ Up
5S1217ELLX▼ Dn
UM201014CLEARED TO FL 360▲ Up
DM61004REQUEST FL 360 DUE TO A/C PERF▼ Dn
UM202636CLEARED TO FL 340▲ Up
DM62625REQUEST FL 340 DUE TO A/C PERF▼ Dn
QB222104:28▼ Dn
QA041404:18 172.5▼ Dn
A33608CLEARED TO ELLX VIA RASA2B RASAM N199 LUSAL M747 LAGAS N644 ODILI N37 SARPI UM10 TIVUG UL852 NEGEM L852 KOMAN L852 VAMON L605 NEKUL P975 MOPUG GITAS SIRDU STEIN DIVAL SITNI LNZ RENKA MAMOR UL610 LOHRE UL984 NOSPA UN858 BETEX BETE3K. SQUAWK 1764.▲ Up
B33606UBBB ELLX J ▼ Dn
Q03102[LINK ACK]▲ Up
Q03102[LINK TEST]▼ Dn


AIRCRAFT HISTORY
FLIGHT DATE FLIGHT NO. ORIGIN DESTINATION CLEARED ROUTE BLOCK TIME FLIGHT TIME FUEL USED PILOT
2020-10-08CLX7996UBBB ELLX UBBB RASAM NUNTI LUSAL LIMTI INTEV SUBUT BAGVA VERCA BARAD LAGAS AGISO TETRO ODILI LU SARPI ATVAM OLUPO GOKPA TIVUG EVPUV DEVMU EVPIM BEDOP MODAU ODMAX NEGEM RITAG KOMAN POLUN VAMON LAMIT NEKUL MIVSA MOPUG GITAS SIRDU STEIN DIVAL SITNI LNZ RENKA MAMOR UNKUL UPALA INBED LOHRE ESATI BOMBI FFM RUDUS OBIGA ADENU NOSPA BITBU BETEX ELLX4.9 hrs4.6 hrs115,239 lbZsolt Szivak
2020-08-02CLX1320UAAA UBBB UAAA EKLAT BINRI AGLEK DEKED TOMGO DIBRA ARBOL ARVAR GENDI KARIM AGERA PAVEL BORIS TAHIR EGZIG GOBUL UNBAS BABIR GENKU EVTEV URG OTBOR TIMGA KELEM BALAT BEDEV IDRIS KRS DUKAN ABROL UBBB8.2 hrs2.9 hrs71,435 lbmike teague
2020-08-01CLX1320UNNT UAAA UNNT ALIRO IDERI MISLU RUBID ELSUT SOMIP UVTOK OSNER IBDAS ORGUK AGNAT GENGA KONAT NALIK GOGDO UAAA2.1 hrs1.8 hrs50,182 lbmike teague